sensor_id;sensor_type;location;lat;lon;timestamp;P1;durP1;ratioP1;P2;durP2;ratioP2
57303;SDS011;43150;50.986;18.208;2022-10-31T00:01:35;40.80;;;36.50;;
57303;SDS011;43150;50.986;18.208;2022-10-31T00:04:02;42.10;;;37.70;;
57303;SDS011;43150;50.986;18.208;2022-10-31T00:06:28;40.60;;;36.40;;
57303;SDS011;43150;50.986;18.208;2022-10-31T00:08:55;41.80;;;37.30;;
57303;SDS011;43150;50.986;18.208;2022-10-31T00:11:22;39.20;;;35.20;;
57303;SDS011;43150;50.986;18.208;2022-10-31T00:13:48;34.60;;;30.90;;
57303;SDS011;43150;50.986;18.208;2022-10-31T00:16:18;29.00;;;21.80;;
57303;SDS011;43150;50.986;18.208;2022-10-31T00:18:52;29.60;;;26.40;;
57303;SDS011;43150;50.986;18.208;2022-10-31T00:21:20;29.70;;;26.70;;
57303;SDS011;43150;50.986;18.208;2022-10-31T00:23:46;30.70;;;27.70;;
57303;SDS011;43150;50.986;18.208;2022-10-31T00:26:12;29.90;;;21.10;;
57303;SDS011;43150;50.986;18.208;2022-10-31T00:28:38;34.10;;;30.50;;
57303;SDS011;43150;50.986;18.208;2022-10-31T00:31:05;33.30;;;29.70;;
57303;SDS011;43150;50.986;18.208;2022-10-31T00:33:33;34.80;;;31.10;;
57303;SDS011;43150;50.986;18.208;2022-10-31T00:35:59;36.20;;;32.40;;
57303;SDS011;43150;50.986;18.208;2022-10-31T00:38:25;35.00;;;26.60;;
57303;SDS011;43150;50.986;18.208;2022-10-31T00:40:51;38.90;;;34.60;;
57303;SDS011;43150;50.986;18.208;2022-10-31T00:43:16;34.50;;;30.90;;
57303;SDS011;43150;50.986;18.208;2022-10-31T00:45:42;35.90;;;32.10;;
57303;SDS011;43150;50.986;18.208;2022-10-31T00:48:09;35.40;;;31.80;;
57303;SDS011;43150;50.986;18.208;2022-10-31T00:50:35;33.70;;;24.50;;
57303;SDS011;43150;50.986;18.208;2022-10-31T00:53:01;37.50;;;33.70;;
57303;SDS011;43150;50.986;18.208;2022-10-31T00:55:27;35.40;;;31.50;;
57303;SDS011;43150;50.986;18.208;2022-10-31T00:57:53;30.60;;;27.70;;
57303;SDS011;43150;50.986;18.208;2022-10-31T01:00:18;28.00;;;20.60;;
57303;SDS011;43150;50.986;18.208;2022-10-31T01:02:47;31.80;;;28.40;;
57303;SDS011;43150;50.986;18.208;2022-10-31T01:05:13;33.70;;;30.20;;
57303;SDS011;43150;50.986;18.208;2022-10-31T01:07:39;34.10;;;30.50;;
57303;SDS011;43150;50.986;18.208;2022-10-31T01:10:06;31.10;;;27.90;;
57303;SDS011;43150;50.986;18.208;2022-10-31T01:12:36;32.90;;;29.40;;
57303;SDS011;43150;50.986;18.208;2022-10-31T01:15:03;30.00;;;26.90;;
57303;SDS011;43150;50.986;18.208;2022-10-31T01:17:29;27.20;;;19.80;;
57303;SDS011;43150;50.986;18.208;2022-10-31T01:19:55;30.40;;;27.20;;
57303;SDS011;43150;50.986;18.208;2022-10-31T01:22:20;30.80;;;27.70;;
57303;SDS011;43150;50.986;18.208;2022-10-31T01:24:46;29.60;;;26.60;;
57303;SDS011;43150;50.986;18.208;2022-10-31T01:27:12;27.90;;;19.00;;
57303;SDS011;43150;50.986;18.208;2022-10-31T01:29:37;29.80;;;26.80;;
57303;SDS011;43150;50.986;18.208;2022-10-31T01:32:03;29.60;;;26.50;;
57303;SDS011;43150;50.986;18.208;2022-10-31T01:34:29;29.90;;;26.70;;
57303;SDS011;43150;50.986;18.208;2022-10-31T01:36:55;27.50;;;19.00;;
57303;SDS011;43150;50.986;18.208;2022-10-31T01:39:21;28.90;;;25.70;;
57303;SDS011;43150;50.986;18.208;2022-10-31T01:41:47;29.20;;;26.30;;
57303;SDS011;43150;50.986;18.208;2022-10-31T01:46:44;26.90;;;20.90;;
57303;SDS011;43150;50.986;18.208;2022-10-31T01:49:13;31.30;;;27.70;;
57303;SDS011;43150;50.986;18.208;2022-10-31T01:51:56;29.40;;;26.40;;
57303;SDS011;43150;50.986;18.208;2022-10-31T01:54:36;28.30;;;25.30;;
57303;SDS011;43150;50.986;18.208;2022-10-31T01:57:10;29.00;;;26.20;;
57303;SDS011;43150;50.986;18.208;2022-10-31T01:59:39;24.40;;;18.40;;
57303;SDS011;43150;50.986;18.208;2022-10-31T02:02:07;30.40;;;27.40;;
57303;SDS011;43150;50.986;18.208;2022-10-31T02:04:33;31.60;;;28.30;;
57303;SDS011;43150;50.986;18.208;2022-10-31T02:07:04;33.50;;;30.00;;
57303;SDS011;43150;50.986;18.208;2022-10-31T02:09:36;29.40;;;22.50;;
57303;SDS011;43150;50.986;18.208;2022-10-31T02:12:02;43.20;;;38.90;;
57303;SDS011;43150;50.986;18.208;2022-10-31T02:14:37;35.50;;;31.90;;
57303;SDS011;43150;50.986;18.208;2022-10-31T02:17:04;32.80;;;24.10;;
57303;SDS011;43150;50.986;18.208;2022-10-31T02:22:29;37.00;;;33.30;;
57303;SDS011;43150;50.986;18.208;2022-10-31T02:28:10;40.40;;;36.30;;
57303;SDS011;43150;50.986;18.208;2022-10-31T02:33:22;35.00;;;27.40;;
57303;SDS011;43150;50.986;18.208;2022-10-31T02:35:57;43.10;;;38.80;;
57303;SDS011;43150;50.986;18.208;2022-10-31T02:46:28;32.00;;;24.50;;
57303;SDS011;43150;50.986;18.208;2022-10-31T02:49:00;37.00;;;33.20;;
57303;SDS011;43150;50.986;18.208;2022-10-31T02:51:32;37.40;;;33.60;;
57303;SDS011;43150;50.986;18.208;2022-10-31T02:53:59;32.90;;;24.50;;
57303;SDS011;43150;50.986;18.208;2022-10-31T02:56:25;36.30;;;32.60;;
57303;SDS011;43150;50.986;18.208;2022-10-31T02:58:52;36.20;;;32.60;;
57303;SDS011;43150;50.986;18.208;2022-10-31T03:06:52;31.20;;;27.90;;
57303;SDS011;43150;50.986;18.208;2022-10-31T03:11:58;32.10;;;23.00;;
57303;SDS011;43150;50.986;18.208;2022-10-31T03:14:38;35.80;;;32.10;;
57303;SDS011;43150;50.986;18.208;2022-10-31T03:17:06;36.50;;;32.60;;
57303;SDS011;43150;50.986;18.208;2022-10-31T03:19:37;35.20;;;31.70;;
57303;SDS011;43150;50.986;18.208;2022-10-31T03:22:12;33.80;;;23.70;;
57303;SDS011;43150;50.986;18.208;2022-10-31T03:24:48;34.90;;;31.00;;
57303;SDS011;43150;50.986;18.208;2022-10-31T03:27:15;35.70;;;32.00;;
57303;SDS011;43150;50.986;18.208;2022-10-31T03:29:45;36.50;;;32.70;;
57303;SDS011;43150;50.986;18.208;2022-10-31T03:32:13;36.90;;;33.00;;
57303;SDS011;43150;50.986;18.208;2022-10-31T03:34:45;35.30;;;31.60;;
57303;SDS011;43150;50.986;18.208;2022-10-31T03:37:17;35.80;;;32.10;;
57303;SDS011;43150;50.986;18.208;2022-10-31T03:39:44;34.90;;;31.20;;
57303;SDS011;43150;50.986;18.208;2022-10-31T03:42:27;31.00;;;23.40;;
57303;SDS011;43150;50.986;18.208;2022-10-31T03:47:22;36.60;;;32.90;;
57303;SDS011;43150;50.986;18.208;2022-10-31T03:49:48;30.30;;;23.00;;
57303;SDS011;43150;50.986;18.208;2022-10-31T03:55:37;33.50;;;30.00;;
57303;SDS011;43150;50.986;18.208;2022-10-31T03:58:17;33.50;;;30.20;;
57303;SDS011;43150;50.986;18.208;2022-10-31T04:00:46;35.20;;;31.60;;
57303;SDS011;43150;50.986;18.208;2022-10-31T04:03:15;31.50;;;22.90;;
57303;SDS011;43150;50.986;18.208;2022-10-31T04:05:50;36.00;;;32.20;;
57303;SDS011;43150;50.986;18.208;2022-10-31T04:08:19;34.30;;;30.90;;
57303;SDS011;43150;50.986;18.208;2022-10-31T04:10:50;36.60;;;32.70;;
57303;SDS011;43150;50.986;18.208;2022-10-31T04:13:17;31.90;;;23.20;;
57303;SDS011;43150;50.986;18.208;2022-10-31T04:15:46;31.60;;;28.40;;
57303;SDS011;43150;50.986;18.208;2022-10-31T04:18:13;32.80;;;29.30;;
57303;SDS011;43150;50.986;18.208;2022-10-31T04:20:40;35.90;;;32.20;;
57303;SDS011;43150;50.986;18.208;2022-10-31T04:23:14;36.60;;;32.80;;
57303;SDS011;43150;50.986;18.208;2022-10-31T04:25:46;36.10;;;32.40;;
57303;SDS011;43150;50.986;18.208;2022-10-31T04:28:12;34.50;;;23.90;;
57303;SDS011;43150;50.986;18.208;2022-10-31T04:30:37;31.30;;;28.10;;
57303;SDS011;43150;50.986;18.208;2022-10-31T04:33:03;30.70;;;27.40;;
57303;SDS011;43150;50.986;18.208;2022-10-31T04:35:29;29.80;;;21.00;;
57303;SDS011;43150;50.986;18.208;2022-10-31T04:37:55;29.80;;;26.80;;
57303;SDS011;43150;50.986;18.208;2022-10-31T04:40:21;34.60;;;30.50;;
57303;SDS011;43150;50.986;18.208;2022-10-31T04:42:46;29.50;;;21.30;;
57303;SDS011;43150;50.986;18.208;2022-10-31T04:45:12;33.30;;;29.70;;
57303;SDS011;43150;50.986;18.208;2022-10-31T04:47:38;36.00;;;32.30;;
57303;SDS011;43150;50.986;18.208;2022-10-31T04:50:04;34.20;;;24.40;;
57303;SDS011;43150;50.986;18.208;2022-10-31T04:52:30;35.00;;;31.40;;
57303;SDS011;43150;50.986;18.208;2022-10-31T04:54:55;36.70;;;32.70;;
57303;SDS011;43150;50.986;18.208;2022-10-31T04:57:21;32.60;;;23.10;;
57303;SDS011;43150;50.986;18.208;2022-10-31T04:59:47;35.10;;;31.20;;
57303;SDS011;43150;50.986;18.208;2022-10-31T05:02:12;36.00;;;32.30;;
57303;SDS011;43150;50.986;18.208;2022-10-31T05:04:38;30.10;;;23.50;;
57303;SDS011;43150;50.986;18.208;2022-10-31T05:07:06;34.60;;;31.00;;
57303;SDS011;43150;50.986;18.208;2022-10-31T05:09:31;32.70;;;29.30;;
57303;SDS011;43150;50.986;18.208;2022-10-31T05:11:57;30.20;;;23.00;;
57303;SDS011;43150;50.986;18.208;2022-10-31T05:14:22;36.20;;;32.40;;
57303;SDS011;43150;50.986;18.208;2022-10-31T05:16:51;36.50;;;32.70;;
57303;SDS011;43150;50.986;18.208;2022-10-31T05:19:16;34.30;;;24.10;;
57303;SDS011;43150;50.986;18.208;2022-10-31T05:21:42;37.90;;;34.00;;
57303;SDS011;43150;50.986;18.208;2022-10-31T05:24:08;38.90;;;34.90;;
57303;SDS011;43150;50.986;18.208;2022-10-31T05:26:34;32.50;;;24.90;;
57303;SDS011;43150;50.986;18.208;2022-10-31T05:28:59;39.50;;;35.50;;
57303;SDS011;43150;50.986;18.208;2022-10-31T05:31:25;46.20;;;34.90;;
57303;SDS011;43150;50.986;18.208;2022-10-31T05:33:50;37.40;;;33.20;;
57303;SDS011;43150;50.986;18.208;2022-10-31T05:36:16;32.40;;;29.10;;
57303;SDS011;43150;50.986;18.208;2022-10-31T05:38:43;25.90;;;19.70;;
57303;SDS011;43150;50.986;18.208;2022-10-31T05:41:08;30.00;;;26.90;;
57303;SDS011;43150;50.986;18.208;2022-10-31T05:43:35;29.10;;;25.90;;
57303;SDS011;43150;50.986;18.208;2022-10-31T05:46:00;30.70;;;21.70;;
57303;SDS011;43150;50.986;18.208;2022-10-31T05:48:26;34.60;;;30.90;;
57303;SDS011;43150;50.986;18.208;2022-10-31T05:50:53;35.80;;;32.10;;
57303;SDS011;43150;50.986;18.208;2022-10-31T05:53:21;35.20;;;23.60;;
57303;SDS011;43150;50.986;18.208;2022-10-31T05:55:46;35.20;;;31.40;;
57303;SDS011;43150;50.986;18.208;2022-10-31T05:58:12;36.70;;;31.50;;
57303;SDS011;43150;50.986;18.208;2022-10-31T06:00:39;37.40;;;33.30;;
57303;SDS011;43150;50.986;18.208;2022-10-31T06:03:05;93.10;;;57.20;;
57303;SDS011;43150;50.986;18.208;2022-10-31T06:05:32;104.90;;;93.80;;
57303;SDS011;43150;50.986;18.208;2022-10-31T06:07:58;65.10;;;58.90;;
57303;SDS011;43150;50.986;18.208;2022-10-31T06:10:24;42.40;;;38.10;;
57303;SDS011;43150;50.986;18.208;2022-10-31T06:12:51;39.60;;;35.50;;
57303;SDS011;43150;50.986;18.208;2022-10-31T06:15:16;34.70;;;25.80;;
57303;SDS011;43150;50.986;18.208;2022-10-31T06:17:42;37.50;;;33.80;;
57303;SDS011;43150;50.986;18.208;2022-10-31T06:20:09;37.50;;;33.80;;
57303;SDS011;43150;50.986;18.208;2022-10-31T06:22:35;33.10;;;29.80;;
57303;SDS011;43150;50.986;18.208;2022-10-31T06:25:01;33.40;;;29.80;;
57303;SDS011;43150;50.986;18.208;2022-10-31T06:27:27;35.10;;;31.50;;
57303;SDS011;43150;50.986;18.208;2022-10-31T06:29:52;31.60;;;28.20;;
57303;SDS011;43150;50.986;18.208;2022-10-31T06:32:18;27.60;;;24.50;;
57303;SDS011;43150;50.986;18.208;2022-10-31T06:34:44;27.10;;;24.30;;
57303;SDS011;43150;50.986;18.208;2022-10-31T06:37:13;27.70;;;24.60;;
57303;SDS011;43150;50.986;18.208;2022-10-31T06:39:39;27.20;;;24.20;;
57303;SDS011;43150;50.986;18.208;2022-10-31T06:42:05;26.10;;;23.50;;
57303;SDS011;43150;50.986;18.208;2022-10-31T06:44:31;28.00;;;23.20;;
57303;SDS011;43150;50.986;18.208;2022-10-31T06:46:57;26.60;;;23.10;;
57303;SDS011;43150;50.986;18.208;2022-10-31T06:49:22;25.80;;;22.40;;
57303;SDS011;43150;50.986;18.208;2022-10-31T06:51:48;26.70;;;22.70;;
57303;SDS011;43150;50.986;18.208;2022-10-31T06:54:15;25.10;;;22.30;;
57303;SDS011;43150;50.986;18.208;2022-10-31T06:56:41;34.00;;;30.40;;
57303;SDS011;43150;50.986;18.208;2022-10-31T06:59:07;32.50;;;29.10;;
57303;SDS011;43150;50.986;18.208;2022-10-31T07:01:33;32.50;;;29.20;;
57303;SDS011;43150;50.986;18.208;2022-10-31T07:06:30;37.50;;;33.80;;
57303;SDS011;43150;50.986;18.208;2022-10-31T07:08:55;29.30;;;26.40;;
57303;SDS011;43150;50.986;18.208;2022-10-31T07:11:21;27.30;;;24.60;;
57303;SDS011;43150;50.986;18.208;2022-10-31T07:13:47;23.50;;;21.00;;
57303;SDS011;43150;50.986;18.208;2022-10-31T07:16:13;24.10;;;20.80;;
57303;SDS011;43150;50.986;18.208;2022-10-31T07:18:39;23.70;;;21.00;;
57303;SDS011;43150;50.986;18.208;2022-10-31T07:21:05;24.10;;;19.90;;
57303;SDS011;43150;50.986;18.208;2022-10-31T07:23:31;22.50;;;20.10;;
57303;SDS011;43150;50.986;18.208;2022-10-31T07:25:58;23.90;;;19.90;;
57303;SDS011;43150;50.986;18.208;2022-10-31T07:28:25;22.60;;;20.10;;
57303;SDS011;43150;50.986;18.208;2022-10-31T07:30:55;24.80;;;19.10;;
57303;SDS011;43150;50.986;18.208;2022-10-31T07:33:23;22.30;;;19.40;;
57303;SDS011;43150;50.986;18.208;2022-10-31T07:35:52;22.70;;;18.10;;
57303;SDS011;43150;50.986;18.208;2022-10-31T07:38:18;22.70;;;18.60;;
57303;SDS011;43150;50.986;18.208;2022-10-31T07:40:48;25.40;;;22.30;;
57303;SDS011;43150;50.986;18.208;2022-10-31T07:43:15;26.60;;;23.80;;
57303;SDS011;43150;50.986;18.208;2022-10-31T07:45:43;26.50;;;23.80;;
57303;SDS011;43150;50.986;18.208;2022-10-31T07:48:12;26.20;;;23.40;;
57303;SDS011;43150;50.986;18.208;2022-10-31T07:50:38;24.10;;;21.70;;
57303;SDS011;43150;50.986;18.208;2022-10-31T07:53:05;22.80;;;20.40;;
57303;SDS011;43150;50.986;18.208;2022-10-31T07:55:37;21.20;;;18.90;;
57303;SDS011;43150;50.986;18.208;2022-10-31T07:58:05;21.60;;;18.80;;
57303;SDS011;43150;50.986;18.208;2022-10-31T08:00:32;20.90;;;18.70;;
57303;SDS011;43150;50.986;18.208;2022-10-31T08:03:21;22.20;;;19.30;;
57303;SDS011;43150;50.986;18.208;2022-10-31T08:05:46;20.50;;;18.30;;
57303;SDS011;43150;50.986;18.208;2022-10-31T08:08:13;22.00;;;19.60;;
57303;SDS011;43150;50.986;18.208;2022-10-31T08:10:39;21.20;;;18.10;;
57303;SDS011;43150;50.986;18.208;2022-10-31T08:13:07;20.40;;;18.20;;
57303;SDS011;43150;50.986;18.208;2022-10-31T08:15:36;21.60;;;18.90;;
57303;SDS011;43150;50.986;18.208;2022-10-31T08:18:05;21.00;;;18.60;;
57303;SDS011;43150;50.986;18.208;2022-10-31T08:20:31;19.40;;;17.40;;
57303;SDS011;43150;50.986;18.208;2022-10-31T08:23:00;19.80;;;16.70;;
57303;SDS011;43150;50.986;18.208;2022-10-31T08:25:29;17.60;;;14.50;;
57303;SDS011;43150;50.986;18.208;2022-10-31T08:27:59;16.10;;;14.50;;
57303;SDS011;43150;50.986;18.208;2022-10-31T08:30:29;18.30;;;14.20;;
57303;SDS011;43150;50.986;18.208;2022-10-31T08:33:15;17.50;;;14.10;;
57303;SDS011;43150;50.986;18.208;2022-10-31T08:35:42;17.00;;;13.50;;
57303;SDS011;43150;50.986;18.208;2022-10-31T08:38:12;15.40;;;13.30;;
57303;SDS011;43150;50.986;18.208;2022-10-31T08:40:38;17.40;;;13.60;;
57303;SDS011;43150;50.986;18.208;2022-10-31T08:43:14;17.60;;;13.40;;
57303;SDS011;43150;50.986;18.208;2022-10-31T08:45:41;16.00;;;13.90;;
57303;SDS011;43150;50.986;18.208;2022-10-31T08:48:09;19.40;;;14.40;;
57303;SDS011;43150;50.986;18.208;2022-10-31T08:50:37;17.10;;;13.50;;
57303;SDS011;43150;50.986;18.208;2022-10-31T08:53:04;15.60;;;12.70;;
57303;SDS011;43150;50.986;18.208;2022-10-31T08:55:40;17.80;;;13.90;;
57303;SDS011;43150;50.986;18.208;2022-10-31T08:58:10;16.80;;;13.30;;
57303;SDS011;43150;50.986;18.208;2022-10-31T09:00:38;17.40;;;12.80;;
57303;SDS011;43150;50.986;18.208;2022-10-31T09:03:06;14.10;;;11.70;;
57303;SDS011;43150;50.986;18.208;2022-10-31T09:05:33;15.60;;;11.50;;
57303;SDS011;43150;50.986;18.208;2022-10-31T09:08:00;14.70;;;11.10;;
57303;SDS011;43150;50.986;18.208;2022-10-31T09:10:28;15.30;;;11.20;;
57303;SDS011;43150;50.986;18.208;2022-10-31T09:12:58;14.60;;;10.90;;
57303;SDS011;43150;50.986;18.208;2022-10-31T09:15:25;16.70;;;11.40;;
57303;SDS011;43150;50.986;18.208;2022-10-31T09:17:52;16.40;;;11.60;;
57303;SDS011;43150;50.986;18.208;2022-10-31T09:20:18;15.10;;;11.80;;
57303;SDS011;43150;50.986;18.208;2022-10-31T09:22:44;14.60;;;11.80;;
57303;SDS011;43150;50.986;18.208;2022-10-31T09:25:10;16.10;;;11.40;;
57303;SDS011;43150;50.986;18.208;2022-10-31T09:27:36;15.30;;;11.10;;
57303;SDS011;43150;50.986;18.208;2022-10-31T09:30:02;15.00;;;11.50;;
57303;SDS011;43150;50.986;18.208;2022-10-31T09:32:29;17.80;;;12.40;;
57303;SDS011;43150;50.986;18.208;2022-10-31T09:34:55;17.50;;;11.10;;
57303;SDS011;43150;50.986;18.208;2022-10-31T09:37:21;15.90;;;11.50;;
57303;SDS011;43150;50.986;18.208;2022-10-31T09:40:03;16.60;;;11.00;;
57303;SDS011;43150;50.986;18.208;2022-10-31T09:50:22;13.70;;;10.80;;
57303;SDS011;43150;50.986;18.208;2022-10-31T09:52:58;13.90;;;10.10;;
57303;SDS011;43150;50.986;18.208;2022-10-31T09:55:47;13.50;;;9.70;;
57303;SDS011;43150;50.986;18.208;2022-10-31T09:58:15;14.40;;;9.90;;
57303;SDS011;43150;50.986;18.208;2022-10-31T10:00:43;13.20;;;10.20;;
57303;SDS011;43150;50.986;18.208;2022-10-31T10:05:43;15.60;;;10.50;;
57303;SDS011;43150;50.986;18.208;2022-10-31T10:08:15;12.30;;;8.50;;
57303;SDS011;43150;50.986;18.208;2022-10-31T10:23:54;16.00;;;8.90;;
57303;SDS011;43150;50.986;18.208;2022-10-31T10:26:22;11.80;;;8.30;;
57303;SDS011;43150;50.986;18.208;2022-10-31T10:29:02;14.00;;;8.50;;
57303;SDS011;43150;50.986;18.208;2022-10-31T10:31:41;16.60;;;8.70;;
57303;SDS011;43150;50.986;18.208;2022-10-31T10:34:13;13.00;;;8.60;;
57303;SDS011;43150;50.986;18.208;2022-10-31T10:37:12;14.60;;;8.90;;
57303;SDS011;43150;50.986;18.208;2022-10-31T10:39:43;12.40;;;8.50;;
57303;SDS011;43150;50.986;18.208;2022-10-31T10:42:12;12.80;;;8.80;;
57303;SDS011;43150;50.986;18.208;2022-10-31T10:44:58;14.20;;;8.80;;
57303;SDS011;43150;50.986;18.208;2022-10-31T10:47:44;12.00;;;8.40;;
57303;SDS011;43150;50.986;18.208;2022-10-31T10:50:25;14.20;;;7.90;;
57303;SDS011;43150;50.986;18.208;2022-10-31T10:55:45;13.70;;;8.60;;
57303;SDS011;43150;50.986;18.208;2022-10-31T10:58:16;12.90;;;8.50;;
57303;SDS011;43150;50.986;18.208;2022-10-31T11:00:42;13.90;;;9.10;;
57303;SDS011;43150;50.986;18.208;2022-10-31T11:03:13;14.30;;;10.60;;
57303;SDS011;43150;50.986;18.208;2022-10-31T11:08:23;13.20;;;8.80;;
57303;SDS011;43150;50.986;18.208;2022-10-31T11:13:42;12.80;;;8.40;;
57303;SDS011;43150;50.986;18.208;2022-10-31T11:16:10;13.80;;;8.30;;
57303;SDS011;43150;50.986;18.208;2022-10-31T11:18:39;12.60;;;8.30;;
57303;SDS011;43150;50.986;18.208;2022-10-31T11:21:17;11.60;;;7.80;;
57303;SDS011;43150;50.986;18.208;2022-10-31T11:26:19;15.00;;;9.40;;
57303;SDS011;43150;50.986;18.208;2022-10-31T11:28:55;11.20;;;8.20;;
57303;SDS011;43150;50.986;18.208;2022-10-31T11:31:22;11.80;;;8.20;;
57303;SDS011;43150;50.986;18.208;2022-10-31T11:33:49;13.20;;;8.40;;
57303;SDS011;43150;50.986;18.208;2022-10-31T11:36:29;13.00;;;7.80;;
57303;SDS011;43150;50.986;18.208;2022-10-31T11:38:56;13.00;;;8.60;;
57303;SDS011;43150;50.986;18.208;2022-10-31T11:44:13;13.90;;;8.60;;
57303;SDS011;43150;50.986;18.208;2022-10-31T11:47:03;11.90;;;9.70;;
57303;SDS011;43150;50.986;18.208;2022-10-31T11:51:59;13.10;;;8.50;;
57303;SDS011;43150;50.986;18.208;2022-10-31T11:54:28;12.50;;;8.20;;
57303;SDS011;43150;50.986;18.208;2022-10-31T11:56:56;12.40;;;8.00;;
57303;SDS011;43150;50.986;18.208;2022-10-31T12:01:53;10.80;;;8.20;;
57303;SDS011;43150;50.986;18.208;2022-10-31T12:04:23;12.80;;;7.80;;
57303;SDS011;43150;50.986;18.208;2022-10-31T12:07:12;11.70;;;7.40;;
57303;SDS011;43150;50.986;18.208;2022-10-31T12:14:51;12.70;;;7.70;;
57303;SDS011;43150;50.986;18.208;2022-10-31T12:25:51;11.60;;;6.80;;
57303;SDS011;43150;50.986;18.208;2022-10-31T12:39:39;10.50;;;5.70;;
57303;SDS011;43150;50.986;18.208;2022-10-31T12:44:41;12.60;;;6.20;;
57303;SDS011;43150;50.986;18.208;2022-10-31T12:58:03;13.30;;;7.80;;
57303;SDS011;43150;50.986;18.208;2022-10-31T13:00:35;11.40;;;5.90;;
57303;SDS011;43150;50.986;18.208;2022-10-31T13:03:09;15.80;;;9.70;;
57303;SDS011;43150;50.986;18.208;2022-10-31T13:05:49;22.10;;;14.00;;
57303;SDS011;43150;50.986;18.208;2022-10-31T13:10:52;10.60;;;5.90;;
57303;SDS011;43150;50.986;18.208;2022-10-31T13:13:54;12.10;;;6.30;;
57303;SDS011;43150;50.986;18.208;2022-10-31T13:16:24;13.10;;;5.50;;
57303;SDS011;43150;50.986;18.208;2022-10-31T13:19:12;10.60;;;6.30;;
57303;SDS011;43150;50.986;18.208;2022-10-31T13:21:51;11.70;;;5.60;;
57303;SDS011;43150;50.986;18.208;2022-10-31T13:24:43;12.50;;;7.80;;
57303;SDS011;43150;50.986;18.208;2022-10-31T13:27:22;17.80;;;10.30;;
57303;SDS011;43150;50.986;18.208;2022-10-31T13:30:00;27.80;;;16.10;;
57303;SDS011;43150;50.986;18.208;2022-10-31T13:32:37;15.00;;;7.10;;
57303;SDS011;43150;50.986;18.208;2022-10-31T13:35:10;11.70;;;6.00;;
57303;SDS011;43150;50.986;18.208;2022-10-31T13:37:43;10.10;;;5.60;;
57303;SDS011;43150;50.986;18.208;2022-10-31T13:43:07;13.40;;;5.90;;
57303;SDS011;43150;50.986;18.208;2022-10-31T13:45:48;10.20;;;5.30;;
57303;SDS011;43150;50.986;18.208;2022-10-31T13:50:42;13.30;;;5.70;;
57303;SDS011;43150;50.986;18.208;2022-10-31T13:56:11;12.20;;;5.50;;
57303;SDS011;43150;50.986;18.208;2022-10-31T13:58:42;12.60;;;5.80;;
57303;SDS011;43150;50.986;18.208;2022-10-31T14:01:24;13.40;;;5.90;;
57303;SDS011;43150;50.986;18.208;2022-10-31T14:04:03;13.70;;;5.90;;
57303;SDS011;43150;50.986;18.208;2022-10-31T14:06:40;12.40;;;6.10;;
57303;SDS011;43150;50.986;18.208;2022-10-31T14:09:18;16.80;;;6.20;;
57303;SDS011;43150;50.986;18.208;2022-10-31T14:11:58;12.90;;;5.60;;
57303;SDS011;43150;50.986;18.208;2022-10-31T14:14:30;18.60;;;6.20;;
57303;SDS011;43150;50.986;18.208;2022-10-31T14:16:58;20.40;;;6.60;;
57303;SDS011;43150;50.986;18.208;2022-10-31T14:19:24;18.40;;;6.70;;
57303;SDS011;43150;50.986;18.208;2022-10-31T14:21:51;18.50;;;6.40;;
57303;SDS011;43150;50.986;18.208;2022-10-31T14:26:54;22.40;;;6.90;;
57303;SDS011;43150;50.986;18.208;2022-10-31T14:29:22;20.00;;;7.10;;
57303;SDS011;43150;50.986;18.208;2022-10-31T14:32:06;21.30;;;7.00;;
57303;SDS011;43150;50.986;18.208;2022-10-31T14:51:36;13.10;;;6.40;;
57303;SDS011;43150;50.986;18.208;2022-10-31T14:54:05;18.60;;;7.50;;
57303;SDS011;43150;50.986;18.208;2022-10-31T14:56:33;28.80;;;8.60;;
57303;SDS011;43150;50.986;18.208;2022-10-31T14:59:08;24.70;;;7.90;;
57303;SDS011;43150;50.986;18.208;2022-10-31T15:01:36;24.80;;;8.10;;
57303;SDS011;43150;50.986;18.208;2022-10-31T15:04:09;23.30;;;7.70;;
57303;SDS011;43150;50.986;18.208;2022-10-31T15:06:47;22.00;;;7.50;;
57303;SDS011;43150;50.986;18.208;2022-10-31T15:09:44;18.10;;;7.50;;
57303;SDS011;43150;50.986;18.208;2022-10-31T15:12:22;18.80;;;7.40;;
57303;SDS011;43150;50.986;18.208;2022-10-31T15:14:52;19.40;;;7.70;;
57303;SDS011;43150;50.986;18.208;2022-10-31T15:17:19;25.00;;;7.90;;
57303;SDS011;43150;50.986;18.208;2022-10-31T15:19:46;22.70;;;9.60;;
57303;SDS011;43150;50.986;18.208;2022-10-31T15:22:14;27.90;;;9.70;;
57303;SDS011;43150;50.986;18.208;2022-10-31T15:27:14;22.20;;;10.70;;
57303;SDS011;43150;50.986;18.208;2022-10-31T15:32:22;26.00;;;12.00;;
57303;SDS011;43150;50.986;18.208;2022-10-31T15:34:48;27.40;;;12.30;;
57303;SDS011;43150;50.986;18.208;2022-10-31T15:37:16;25.10;;;11.80;;
57303;SDS011;43150;50.986;18.208;2022-10-31T15:39:46;23.90;;;12.30;;
57303;SDS011;43150;50.986;18.208;2022-10-31T15:42:22;36.60;;;16.10;;
57303;SDS011;43150;50.986;18.208;2022-10-31T15:44:59;129.10;;;47.60;;
57303;SDS011;43150;50.986;18.208;2022-10-31T15:47:26;108.60;;;44.80;;
57303;SDS011;43150;50.986;18.208;2022-10-31T15:49:56;100.60;;;46.50;;
57303;SDS011;43150;50.986;18.208;2022-10-31T15:57:59;69.30;;;44.00;;
57303;SDS011;43150;50.986;18.208;2022-10-31T16:00:33;63.20;;;40.00;;
57303;SDS011;43150;50.986;18.208;2022-10-31T16:05:43;19.80;;;11.80;;
57303;SDS011;43150;50.986;18.208;2022-10-31T16:08:22;20.60;;;11.70;;
57303;SDS011;43150;50.986;18.208;2022-10-31T16:10:49;19.30;;;11.80;;
57303;SDS011;43150;50.986;18.208;2022-10-31T16:13:15;21.70;;;12.20;;
57303;SDS011;43150;50.986;18.208;2022-10-31T16:15:51;21.10;;;12.00;;
57303;SDS011;43150;50.986;18.208;2022-10-31T16:18:20;19.90;;;12.00;;
57303;SDS011;43150;50.986;18.208;2022-10-31T16:20:52;20.30;;;12.90;;
57303;SDS011;43150;50.986;18.208;2022-10-31T16:23:21;19.10;;;13.30;;
57303;SDS011;43150;50.986;18.208;2022-10-31T16:25:49;21.30;;;13.20;;
57303;SDS011;43150;50.986;18.208;2022-10-31T16:28:17;20.80;;;13.10;;
57303;SDS011;43150;50.986;18.208;2022-10-31T16:30:44;23.80;;;14.10;;
57303;SDS011;43150;50.986;18.208;2022-10-31T16:35:54;32.30;;;21.50;;
57303;SDS011;43150;50.986;18.208;2022-10-31T16:38:20;34.30;;;24.80;;
57303;SDS011;43150;50.986;18.208;2022-10-31T16:40:46;32.90;;;26.10;;
57303;SDS011;43150;50.986;18.208;2022-10-31T16:43:13;34.10;;;25.70;;
57303;SDS011;43150;50.986;18.208;2022-10-31T16:45:44;48.00;;;42.90;;
57303;SDS011;43150;50.986;18.208;2022-10-31T16:48:13;49.40;;;40.10;;
57303;SDS011;43150;50.986;18.208;2022-10-31T16:50:44;28.30;;;19.60;;
57303;SDS011;43150;50.986;18.208;2022-10-31T16:53:11;31.20;;;23.80;;
57303;SDS011;43150;50.986;18.208;2022-10-31T16:58:25;54.30;;;48.70;;
57303;SDS011;43150;50.986;18.208;2022-10-31T17:00:53;35.40;;;29.50;;
57303;SDS011;43150;50.986;18.208;2022-10-31T17:03:19;46.60;;;41.80;;
57303;SDS011;43150;50.986;18.208;2022-10-31T17:05:45;21.80;;;15.40;;
57303;SDS011;43150;50.986;18.208;2022-10-31T17:08:10;19.70;;;15.60;;
57303;SDS011;43150;50.986;18.208;2022-10-31T17:10:36;24.70;;;18.50;;